sensor_id;sensor_type;location;lat;lon;timestamp;temperature;humidity
16517;DHT22;8371;52.272;9.746;2023-10-31T00:00:17;15.00;82.20
16517;DHT22;8371;52.272;9.746;2023-10-31T00:02:43;15.10;82.20
16517;DHT22;8371;52.272;9.746;2023-10-31T00:05:09;15.10;82.30
16517;DHT22;8371;52.272;9.746;2023-10-31T00:07:34;15.10;82.30
16517;DHT22;8371;52.272;9.746;2023-10-31T00:10:00;15.10;82.30
16517;DHT22;8371;52.272;9.746;2023-10-31T00:12:26;15.10;82.30
16517;DHT22;8371;52.272;9.746;2023-10-31T00:14:52;15.10;82.30
16517;DHT22;8371;52.272;9.746;2023-10-31T00:17:17;15.10;82.30
16517;DHT22;8371;52.272;9.746;2023-10-31T00:19:43;15.10;82.40
16517;DHT22;8371;52.272;9.746;2023-10-31T00:22:09;15.10;82.30
16517;DHT22;8371;52.272;9.746;2023-10-31T00:24:35;15.10;82.30
16517;DHT22;8371;52.272;9.746;2023-10-31T00:27:01;15.10;82.40
16517;DHT22;8371;52.272;9.746;2023-10-31T00:29:27;15.10;82.50
16517;DHT22;8371;52.272;9.746;2023-10-31T00:31:52;15.10;82.40
16517;DHT22;8371;52.272;9.746;2023-10-31T00:34:18;15.10;82.40
16517;DHT22;8371;52.272;9.746;2023-10-31T00:36:44;15.10;82.50
16517;DHT22;8371;52.272;9.746;2023-10-31T00:39:10;15.10;82.60
16517;DHT22;8371;52.272;9.746;2023-10-31T00:41:36;15.10;82.60
16517;DHT22;8371;52.272;9.746;2023-10-31T00:44:01;15.20;82.60
16517;DHT22;8371;52.272;9.746;2023-10-31T00:46:27;15.20;82.70
16517;DHT22;8371;52.272;9.746;2023-10-31T00:48:53;15.10;82.70
16517;DHT22;8371;52.272;9.746;2023-10-31T00:51:18;15.20;82.70
16517;DHT22;8371;52.272;9.746;2023-10-31T00:53:45;15.20;82.70
16517;DHT22;8371;52.272;9.746;2023-10-31T00:56:11;15.20;82.80
16517;DHT22;8371;52.272;9.746;2023-10-31T00:58:36;15.20;82.80
16517;DHT22;8371;52.272;9.746;2023-10-31T01:01:02;15.20;82.80
16517;DHT22;8371;52.272;9.746;2023-10-31T01:03:28;15.20;82.90
16517;DHT22;8371;52.272;9.746;2023-10-31T01:05:54;15.30;82.80
16517;DHT22;8371;52.272;9.746;2023-10-31T01:08:19;15.30;82.90
16517;DHT22;8371;52.272;9.746;2023-10-31T01:10:45;15.30;82.90
16517;DHT22;8371;52.272;9.746;2023-10-31T01:13:11;15.20;82.90
16517;DHT22;8371;52.272;9.746;2023-10-31T01:15:37;15.20;82.80
16517;DHT22;8371;52.272;9.746;2023-10-31T01:18:02;15.20;82.90
16517;DHT22;8371;52.272;9.746;2023-10-31T01:20:28;15.20;82.90
16517;DHT22;8371;52.272;9.746;2023-10-31T01:22:54;15.30;82.90
16517;DHT22;8371;52.272;9.746;2023-10-31T01:25:19;15.30;83.00
16517;DHT22;8371;52.272;9.746;2023-10-31T01:27:45;15.30;83.00
16517;DHT22;8371;52.272;9.746;2023-10-31T01:30:12;15.30;83.10
16517;DHT22;8371;52.272;9.746;2023-10-31T01:32:38;15.30;83.10
16517;DHT22;8371;52.272;9.746;2023-10-31T01:35:04;15.30;83.30
16517;DHT22;8371;52.272;9.746;2023-10-31T01:37:30;15.30;83.20
16517;DHT22;8371;52.272;9.746;2023-10-31T01:39:55;15.30;83.20
16517;DHT22;8371;52.272;9.746;2023-10-31T01:42:21;15.30;83.30
16517;DHT22;8371;52.272;9.746;2023-10-31T01:44:47;15.30;83.40
16517;DHT22;8371;52.272;9.746;2023-10-31T01:47:12;15.30;83.30
16517;DHT22;8371;52.272;9.746;2023-10-31T01:49:38;15.40;83.50
16517;DHT22;8371;52.272;9.746;2023-10-31T01:52:05;15.40;83.40
16517;DHT22;8371;52.272;9.746;2023-10-31T01:54:32;15.30;83.40
16517;DHT22;8371;52.272;9.746;2023-10-31T01:56:59;15.40;83.40
16517;DHT22;8371;52.272;9.746;2023-10-31T01:59:26;15.40;83.40
16517;DHT22;8371;52.272;9.746;2023-10-31T02:01:52;15.30;83.40
16517;DHT22;8371;52.272;9.746;2023-10-31T02:04:19;15.40;83.40
16517;DHT22;8371;52.272;9.746;2023-10-31T02:06:44;15.40;83.50
16517;DHT22;8371;52.272;9.746;2023-10-31T02:09:11;15.40;83.50
16517;DHT22;8371;52.272;9.746;2023-10-31T02:11:37;15.40;83.50
16517;DHT22;8371;52.272;9.746;2023-10-31T02:14:03;15.40;83.60
16517;DHT22;8371;52.272;9.746;2023-10-31T02:16:28;15.40;83.60
16517;DHT22;8371;52.272;9.746;2023-10-31T02:18:54;15.50;83.70
16517;DHT22;8371;52.272;9.746;2023-10-31T02:21:20;15.50;83.70
16517;DHT22;8371;52.272;9.746;2023-10-31T02:24:02;15.50;83.80
16517;DHT22;8371;52.272;9.746;2023-10-31T02:26:32;15.50;83.80
16517;DHT22;8371;52.272;9.746;2023-10-31T02:28:59;15.50;83.70
16517;DHT22;8371;52.272;9.746;2023-10-31T02:31:25;15.50;83.70
16517;DHT22;8371;52.272;9.746;2023-10-31T02:33:51;15.60;83.80
16517;DHT22;8371;52.272;9.746;2023-10-31T02:36:18;15.50;83.80
16517;DHT22;8371;52.272;9.746;2023-10-31T02:38:44;15.60;83.90
16517;DHT22;8371;52.272;9.746;2023-10-31T02:41:10;15.60;83.90
16517;DHT22;8371;52.272;9.746;2023-10-31T02:43:37;15.60;83.80
16517;DHT22;8371;52.272;9.746;2023-10-31T02:46:03;15.60;83.80
16517;DHT22;8371;52.272;9.746;2023-10-31T02:48:29;15.60;83.80
16517;DHT22;8371;52.272;9.746;2023-10-31T02:50:56;15.70;83.80
16517;DHT22;8371;52.272;9.746;2023-10-31T02:53:22;15.60;84.50
16517;DHT22;8371;52.272;9.746;2023-10-31T02:55:47;15.60;83.70
16517;DHT22;8371;52.272;9.746;2023-10-31T02:58:13;15.60;84.20
16517;DHT22;8371;52.272;9.746;2023-10-31T03:00:39;15.60;83.70
16517;DHT22;8371;52.272;9.746;2023-10-31T03:03:04;15.70;83.80
16517;DHT22;8371;52.272;9.746;2023-10-31T03:05:30;15.60;83.90
16517;DHT22;8371;52.272;9.746;2023-10-31T03:07:56;15.60;83.90
16517;DHT22;8371;52.272;9.746;2023-10-31T03:10:22;15.60;84.00
16517;DHT22;8371;52.272;9.746;2023-10-31T03:12:47;15.70;84.00
16517;DHT22;8371;52.272;9.746;2023-10-31T03:15:13;15.70;84.00
16517;DHT22;8371;52.272;9.746;2023-10-31T03:17:39;15.70;84.10
16517;DHT22;8371;52.272;9.746;2023-10-31T03:20:05;15.70;84.10
16517;DHT22;8371;52.272;9.746;2023-10-31T03:22:31;15.70;84.00
16517;DHT22;8371;52.272;9.746;2023-10-31T03:24:57;15.70;84.00
16517;DHT22;8371;52.272;9.746;2023-10-31T03:27:23;15.80;83.60
16517;DHT22;8371;52.272;9.746;2023-10-31T03:29:48;15.80;83.10
16517;DHT22;8371;52.272;9.746;2023-10-31T03:32:14;15.70;82.70
16517;DHT22;8371;52.272;9.746;2023-10-31T03:34:41;15.70;82.50
16517;DHT22;8371;52.272;9.746;2023-10-31T03:37:07;15.70;82.20
16517;DHT22;8371;52.272;9.746;2023-10-31T03:39:32;15.60;82.00
16517;DHT22;8371;52.272;9.746;2023-10-31T03:41:59;15.60;82.00
16517;DHT22;8371;52.272;9.746;2023-10-31T03:44:25;15.50;81.80
16517;DHT22;8371;52.272;9.746;2023-10-31T03:46:51;15.50;81.80
16517;DHT22;8371;52.272;9.746;2023-10-31T03:49:16;15.50;81.70
16517;DHT22;8371;52.272;9.746;2023-10-31T03:51:42;15.40;81.60
16517;DHT22;8371;52.272;9.746;2023-10-31T03:54:08;15.40;81.50
16517;DHT22;8371;52.272;9.746;2023-10-31T03:56:43;15.40;81.50
16517;DHT22;8371;52.272;9.746;2023-10-31T03:59:09;15.30;81.50
16517;DHT22;8371;52.272;9.746;2023-10-31T04:01:35;15.30;81.40
16517;DHT22;8371;52.272;9.746;2023-10-31T04:04:02;15.20;81.40
16517;DHT22;8371;52.272;9.746;2023-10-31T04:06:28;15.20;81.40
16517;DHT22;8371;52.272;9.746;2023-10-31T04:08:53;15.20;81.30
16517;DHT22;8371;52.272;9.746;2023-10-31T04:11:19;15.10;81.30
16517;DHT22;8371;52.272;9.746;2023-10-31T04:13:45;15.10;81.30
16517;DHT22;8371;52.272;9.746;2023-10-31T04:16:11;15.00;81.20
16517;DHT22;8371;52.272;9.746;2023-10-31T04:18:37;15.00;81.30
16517;DHT22;8371;52.272;9.746;2023-10-31T04:21:03;15.00;81.30
16517;DHT22;8371;52.272;9.746;2023-10-31T04:23:29;15.00;81.30
16517;DHT22;8371;52.272;9.746;2023-10-31T04:25:55;15.00;81.20
16517;DHT22;8371;52.272;9.746;2023-10-31T04:28:20;14.90;81.10
16517;DHT22;8371;52.272;9.746;2023-10-31T04:30:46;14.90;81.10
16517;DHT22;8371;52.272;9.746;2023-10-31T04:33:12;14.90;81.00
16517;DHT22;8371;52.272;9.746;2023-10-31T04:35:37;14.90;81.00
16517;DHT22;8371;52.272;9.746;2023-10-31T04:38:03;14.80;81.00
16517;DHT22;8371;52.272;9.746;2023-10-31T04:40:29;14.80;80.70
16517;DHT22;8371;52.272;9.746;2023-10-31T04:42:54;14.80;81.60
16517;DHT22;8371;52.272;9.746;2023-10-31T04:45:20;14.80;80.50
16517;DHT22;8371;52.272;9.746;2023-10-31T04:47:46;14.70;79.80
16517;DHT22;8371;52.272;9.746;2023-10-31T04:50:12;14.70;80.20
16517;DHT22;8371;52.272;9.746;2023-10-31T04:52:38;14.60;80.20
16517;DHT22;8371;52.272;9.746;2023-10-31T04:55:04;14.60;80.30
16517;DHT22;8371;52.272;9.746;2023-10-31T04:57:30;14.60;80.20
16517;DHT22;8371;52.272;9.746;2023-10-31T04:59:56;14.50;80.10
16517;DHT22;8371;52.272;9.746;2023-10-31T05:02:23;14.50;80.10
16517;DHT22;8371;52.272;9.746;2023-10-31T05:04:49;14.40;79.90
16517;DHT22;8371;52.272;9.746;2023-10-31T05:07:17;14.40;80.00
16517;DHT22;8371;52.272;9.746;2023-10-31T05:09:43;14.30;79.70
16517;DHT22;8371;52.272;9.746;2023-10-31T05:12:08;14.30;79.80
16517;DHT22;8371;52.272;9.746;2023-10-31T05:14:35;14.20;79.70
16517;DHT22;8371;52.272;9.746;2023-10-31T05:17:01;14.20;79.60
16517;DHT22;8371;52.272;9.746;2023-10-31T05:19:26;14.10;79.50
16517;DHT22;8371;52.272;9.746;2023-10-31T05:21:52;14.00;79.50
16517;DHT22;8371;52.272;9.746;2023-10-31T05:24:18;14.00;79.60
16517;DHT22;8371;52.272;9.746;2023-10-31T05:26:43;13.90;79.60
16517;DHT22;8371;52.272;9.746;2023-10-31T05:29:10;13.80;79.50
16517;DHT22;8371;52.272;9.746;2023-10-31T05:31:36;13.80;79.80
16517;DHT22;8371;52.272;9.746;2023-10-31T05:34:02;13.80;79.80
16517;DHT22;8371;52.272;9.746;2023-10-31T05:36:29;13.70;79.80
16517;DHT22;8371;52.272;9.746;2023-10-31T05:38:55;13.70;79.90
16517;DHT22;8371;52.272;9.746;2023-10-31T05:41:21;13.60;80.00
16517;DHT22;8371;52.272;9.746;2023-10-31T05:43:47;13.60;80.00
16517;DHT22;8371;52.272;9.746;2023-10-31T05:46:12;13.60;80.00
16517;DHT22;8371;52.272;9.746;2023-10-31T05:48:44;13.60;80.00
16517;DHT22;8371;52.272;9.746;2023-10-31T05:51:14;13.60;80.00
16517;DHT22;8371;52.272;9.746;2023-10-31T05:53:43;13.60;79.90
16517;DHT22;8371;52.272;9.746;2023-10-31T05:56:09;13.60;80.00
16517;DHT22;8371;52.272;9.746;2023-10-31T05:58:37;13.60;80.00
16517;DHT22;8371;52.272;9.746;2023-10-31T06:01:04;13.60;80.00
16517;DHT22;8371;52.272;9.746;2023-10-31T06:03:31;13.60;80.00
16517;DHT22;8371;52.272;9.746;2023-10-31T06:05:56;13.60;79.90
16517;DHT22;8371;52.272;9.746;2023-10-31T06:08:22;13.50;79.90
16517;DHT22;8371;52.272;9.746;2023-10-31T06:10:50;13.50;79.90
16517;DHT22;8371;52.272;9.746;2023-10-31T06:13:16;13.50;79.90
16517;DHT22;8371;52.272;9.746;2023-10-31T06:15:42;13.50;79.80
16517;DHT22;8371;52.272;9.746;2023-10-31T06:18:08;13.50;79.70
16517;DHT22;8371;52.272;9.746;2023-10-31T06:20:34;13.50;79.80
16517;DHT22;8371;52.272;9.746;2023-10-31T06:23:01;13.40;79.70
16517;DHT22;8371;52.272;9.746;2023-10-31T06:25:29;13.40;79.70
16517;DHT22;8371;52.272;9.746;2023-10-31T06:27:55;13.40;79.70
16517;DHT22;8371;52.272;9.746;2023-10-31T06:30:21;13.40;79.70
16517;DHT22;8371;52.272;9.746;2023-10-31T06:32:46;13.40;79.80
16517;DHT22;8371;52.272;9.746;2023-10-31T06:35:12;13.40;79.80
16517;DHT22;8371;52.272;9.746;2023-10-31T06:37:38;13.30;79.80
16517;DHT22;8371;52.272;9.746;2023-10-31T06:40:06;13.30;80.00
16517;DHT22;8371;52.272;9.746;2023-10-31T06:42:32;13.30;80.00
16517;DHT22;8371;52.272;9.746;2023-10-31T06:44:57;13.30;80.30
16517;DHT22;8371;52.272;9.746;2023-10-31T06:47:23;13.30;80.00
16517;DHT22;8371;52.272;9.746;2023-10-31T06:49:49;13.30;80.10
16517;DHT22;8371;52.272;9.746;2023-10-31T06:52:14;13.30;80.10
16517;DHT22;8371;52.272;9.746;2023-10-31T06:54:40;13.30;80.20
16517;DHT22;8371;52.272;9.746;2023-10-31T06:57:06;13.30;80.20
16517;DHT22;8371;52.272;9.746;2023-10-31T06:59:32;13.30;80.20
16517;DHT22;8371;52.272;9.746;2023-10-31T07:01:57;13.30;80.20
16517;DHT22;8371;52.272;9.746;2023-10-31T07:04:23;13.30;80.20
16517;DHT22;8371;52.272;9.746;2023-10-31T07:06:49;13.40;80.20
16517;DHT22;8371;52.272;9.746;2023-10-31T07:09:14;13.40;80.20
16517;DHT22;8371;52.272;9.746;2023-10-31T07:11:40;13.40;80.10
16517;DHT22;8371;52.272;9.746;2023-10-31T07:14:06;13.40;80.10
16517;DHT22;8371;52.272;9.746;2023-10-31T07:16:32;13.40;80.20
16517;DHT22;8371;52.272;9.746;2023-10-31T07:18:58;13.40;80.20
16517;DHT22;8371;52.272;9.746;2023-10-31T07:21:24;13.40;80.20
16517;DHT22;8371;52.272;9.746;2023-10-31T07:23:49;13.40;80.30
16517;DHT22;8371;52.272;9.746;2023-10-31T07:26:16;13.50;80.30
16517;DHT22;8371;52.272;9.746;2023-10-31T07:28:41;13.50;80.40
16517;DHT22;8371;52.272;9.746;2023-10-31T07:31:07;13.50;80.40
16517;DHT22;8371;52.272;9.746;2023-10-31T07:33:33;13.60;80.40
16517;DHT22;8371;52.272;9.746;2023-10-31T07:35:58;13.60;80.40
16517;DHT22;8371;52.272;9.746;2023-10-31T07:38:24;13.60;80.40
16517;DHT22;8371;52.272;9.746;2023-10-31T07:40:50;13.60;80.50
16517;DHT22;8371;52.272;9.746;2023-10-31T07:43:15;13.70;80.50
16517;DHT22;8371;52.272;9.746;2023-10-31T07:45:41;13.70;80.60
16517;DHT22;8371;52.272;9.746;2023-10-31T07:48:08;13.70;80.50
16517;DHT22;8371;52.272;9.746;2023-10-31T07:50:34;13.70;80.50
16517;DHT22;8371;52.272;9.746;2023-10-31T07:53:00;13.70;80.50
16517;DHT22;8371;52.272;9.746;2023-10-31T07:55:25;13.70;80.50
16517;DHT22;8371;52.272;9.746;2023-10-31T07:57:51;13.70;80.50
16517;DHT22;8371;52.272;9.746;2023-10-31T08:00:17;13.70;80.50
16517;DHT22;8371;52.272;9.746;2023-10-31T08:02:43;13.70;80.60
16517;DHT22;8371;52.272;9.746;2023-10-31T08:05:10;13.70;80.60
16517;DHT22;8371;52.272;9.746;2023-10-31T08:07:36;13.60;80.70
16517;DHT22;8371;52.272;9.746;2023-10-31T08:10:02;13.60;80.80
16517;DHT22;8371;52.272;9.746;2023-10-31T08:12:29;13.60;80.80
16517;DHT22;8371;52.272;9.746;2023-10-31T08:14:55;13.60;80.80
16517;DHT22;8371;52.272;9.746;2023-10-31T08:17:21;13.60;80.80
16517;DHT22;8371;52.272;9.746;2023-10-31T08:19:46;13.60;81.20
16517;DHT22;8371;52.272;9.746;2023-10-31T08:22:13;13.50;81.20
16517;DHT22;8371;52.272;9.746;2023-10-31T08:24:39;13.60;81.30
16517;DHT22;8371;52.272;9.746;2023-10-31T08:27:05;13.60;81.60
16517;DHT22;8371;52.272;9.746;2023-10-31T08:29:31;13.60;81.70
16517;DHT22;8371;52.272;9.746;2023-10-31T08:31:57;13.60;81.80
16517;DHT22;8371;52.272;9.746;2023-10-31T08:34:23;13.60;81.80
16517;DHT22;8371;52.272;9.746;2023-10-31T08:36:48;13.70;81.80
16517;DHT22;8371;52.272;9.746;2023-10-31T08:39:14;13.70;81.60
16517;DHT22;8371;52.272;9.746;2023-10-31T08:41:54;13.70;81.30
16517;DHT22;8371;52.272;9.746;2023-10-31T08:44:17;13.80;81.20
16517;DHT22;8371;52.272;9.746;2023-10-31T08:46:43;13.70;81.00
16517;DHT22;8371;52.272;9.746;2023-10-31T08:49:08;13.80;81.10
16517;DHT22;8371;52.272;9.746;2023-10-31T08:51:34;13.80;81.10
16517;DHT22;8371;52.272;9.746;2023-10-31T08:54:00;13.80;81.10
16517;DHT22;8371;52.272;9.746;2023-10-31T08:56:26;13.80;81.10
16517;DHT22;8371;52.272;9.746;2023-10-31T08:58:53;13.90;81.20
16517;DHT22;8371;52.272;9.746;2023-10-31T09:01:19;13.90;81.10
16517;DHT22;8371;52.272;9.746;2023-10-31T09:03:45;14.00;80.90
16517;DHT22;8371;52.272;9.746;2023-10-31T09:06:11;14.00;80.80
16517;DHT22;8371;52.272;9.746;2023-10-31T09:08:36;14.10;80.70
16517;DHT22;8371;52.272;9.746;2023-10-31T09:11:05;14.00;80.50
16517;DHT22;8371;52.272;9.746;2023-10-31T09:13:31;14.10;80.60
16517;DHT22;8371;52.272;9.746;2023-10-31T09:15:58;14.20;80.60
16517;DHT22;8371;52.272;9.746;2023-10-31T09:18:24;14.20;80.60
16517;DHT22;8371;52.272;9.746;2023-10-31T09:20:50;14.20;80.60
16517;DHT22;8371;52.272;9.746;2023-10-31T09:23:16;14.30;80.70
16517;DHT22;8371;52.272;9.746;2023-10-31T09:25:43;14.30;80.70
16517;DHT22;8371;52.272;9.746;2023-10-31T09:28:09;14.40;81.20
16517;DHT22;8371;52.272;9.746;2023-10-31T09:30:35;14.50;80.90
16517;DHT22;8371;52.272;9.746;2023-10-31T09:33:01;14.60;80.40
16517;DHT22;8371;52.272;9.746;2023-10-31T09:35:26;14.60;80.80
16517;DHT22;8371;52.272;9.746;2023-10-31T09:37:53;14.70;80.20
16517;DHT22;8371;52.272;9.746;2023-10-31T09:40:19;14.80;80.10
16517;DHT22;8371;52.272;9.746;2023-10-31T09:42:45;14.90;80.10
16517;DHT22;8371;52.272;9.746;2023-10-31T09:45:12;15.00;80.00
16517;DHT22;8371;52.272;9.746;2023-10-31T09:47:39;15.10;79.80
16517;DHT22;8371;52.272;9.746;2023-10-31T09:50:06;15.10;79.80
16517;DHT22;8371;52.272;9.746;2023-10-31T09:52:35;15.10;79.50
16517;DHT22;8371;52.272;9.746;2023-10-31T09:55:01;15.30;79.60
16517;DHT22;8371;52.272;9.746;2023-10-31T09:57:27;15.20;79.40
16517;DHT22;8371;52.272;9.746;2023-10-31T09:59:53;15.30;79.30
16517;DHT22;8371;52.272;9.746;2023-10-31T10:02:19;15.30;79.10
16517;DHT22;8371;52.272;9.746;2023-10-31T10:04:44;15.40;79.00
16517;DHT22;8371;52.272;9.746;2023-10-31T10:07:15;15.40;78.60
16517;DHT22;8371;52.272;9.746;2023-10-31T10:09:42;15.40;78.40
16517;DHT22;8371;52.272;9.746;2023-10-31T10:12:11;15.40;78.60
16517;DHT22;8371;52.272;9.746;2023-10-31T10:14:38;15.50;78.60
16517;DHT22;8371;52.272;9.746;2023-10-31T10:17:15;15.50;78.70
16517;DHT22;8371;52.272;9.746;2023-10-31T10:19:41;15.50;78.20
16517;DHT22;8371;52.272;9.746;2023-10-31T10:22:07;15.50;78.10
16517;DHT22;8371;52.272;9.746;2023-10-31T10:24:33;15.80;78.40
16517;DHT22;8371;52.272;9.746;2023-10-31T10:26:59;15.60;78.30
16517;DHT22;8371;52.272;9.746;2023-10-31T10:29:24;15.60;77.60
16517;DHT22;8371;52.272;9.746;2023-10-31T10:31:51;15.60;77.80
16517;DHT22;8371;52.272;9.746;2023-10-31T10:34:19;15.60;78.00
16517;DHT22;8371;52.272;9.746;2023-10-31T10:36:47;15.60;78.00
16517;DHT22;8371;52.272;9.746;2023-10-31T10:39:19;15.70;78.00
16517;DHT22;8371;52.272;9.746;2023-10-31T10:41:57;15.70;77.80
16517;DHT22;8371;52.272;9.746;2023-10-31T10:44:16;15.70;77.80
16517;DHT22;8371;52.272;9.746;2023-10-31T10:46:45;15.70;77.90
16517;DHT22;8371;52.272;9.746;2023-10-31T10:49:14;15.80;77.90
16517;DHT22;8371;52.272;9.746;2023-10-31T10:51:46;15.80;77.80
16517;DHT22;8371;52.272;9.746;2023-10-31T10:54:18;15.80;77.70
16517;DHT22;8371;52.272;9.746;2023-10-31T10:56:55;15.80;77.70
16517;DHT22;8371;52.272;9.746;2023-10-31T10:59:34;15.90;78.60
16517;DHT22;8371;52.272;9.746;2023-10-31T11:01:55;15.90;77.80
16517;DHT22;8371;52.272;9.746;2023-10-31T11:04:21;15.90;77.30
16517;DHT22;8371;52.272;9.746;2023-10-31T11:06:48;15.90;77.40
16517;DHT22;8371;52.272;9.746;2023-10-31T11:09:14;15.90;77.20
16517;DHT22;8371;52.272;9.746;2023-10-31T11:11:41;16.00;76.70
16517;DHT22;8371;52.272;9.746;2023-10-31T11:14:09;15.90;76.60
16517;DHT22;8371;52.272;9.746;2023-10-31T11:16:39;15.90;77.00
16517;DHT22;8371;52.272;9.746;2023-10-31T11:19:07;15.90;77.20
16517;DHT22;8371;52.272;9.746;2023-10-31T11:21:34;16.00;77.40
16517;DHT22;8371;52.272;9.746;2023-10-31T11:24:01;16.00;77.50
16517;DHT22;8371;52.272;9.746;2023-10-31T11:26:28;16.00;77.30
16517;DHT22;8371;52.272;9.746;2023-10-31T11:29:07;16.10;76.60
16517;DHT22;8371;52.272;9.746;2023-10-31T11:31:31;16.10;77.70
16517;DHT22;8371;52.272;9.746;2023-10-31T11:33:58;16.10;76.80
16517;DHT22;8371;52.272;9.746;2023-10-31T11:36:23;16.00;76.60
16517;DHT22;8371;52.272;9.746;2023-10-31T11:38:49;16.00;76.50
16517;DHT22;8371;52.272;9.746;2023-10-31T11:41:15;16.00;76.30
16517;DHT22;8371;52.272;9.746;2023-10-31T11:46:22;16.00;76.50
16517;DHT22;8371;52.272;9.746;2023-10-31T11:48:53;15.90;76.10
16517;DHT22;8371;52.272;9.746;2023-10-31T11:51:21;15.90;76.30
16517;DHT22;8371;52.272;9.746;2023-10-31T11:53:50;15.90;76.50
16517;DHT22;8371;52.272;9.746;2023-10-31T11:56:16;15.80;76.50
16517;DHT22;8371;52.272;9.746;2023-10-31T11:58:42;15.80;76.50
16517;DHT22;8371;52.272;9.746;2023-10-31T12:01:08;15.80;76.40
16517;DHT22;8371;52.272;9.746;2023-10-31T12:03:43;15.70;76.40
16517;DHT22;8371;52.272;9.746;2023-10-31T12:06:11;15.70;76.50
16517;DHT22;8371;52.272;9.746;2023-10-31T12:08:40;15.70;76.60
16517;DHT22;8371;52.272;9.746;2023-10-31T12:11:12;15.60;76.50
16517;DHT22;8371;52.272;9.746;2023-10-31T12:14:18;15.60;76.70
16517;DHT22;8371;52.272;9.746;2023-10-31T12:16:22;15.60;77.00
16517;DHT22;8371;52.272;9.746;2023-10-31T12:19:09;15.60;77.00
16517;DHT22;8371;52.272;9.746;2023-10-31T12:21:44;15.60;76.80
16517;DHT22;8371;52.272;9.746;2023-10-31T12:24:14;15.70;76.80
16517;DHT22;8371;52.272;9.746;2023-10-31T12:26:57;15.70;76.80
16517;DHT22;8371;52.272;9.746;2023-10-31T12:29:27;15.70;76.90
16517;DHT22;8371;52.272;9.746;2023-10-31T12:31:55;15.90;76.90
16517;DHT22;8371;52.272;9.746;2023-10-31T12:34:24;15.80;76.90
16517;DHT22;8371;52.272;9.746;2023-10-31T12:36:59;15.70;76.70
16517;DHT22;8371;52.272;9.746;2023-10-31T12:39:27;15.90;76.60
16517;DHT22;8371;52.272;9.746;2023-10-31T12:42:14;16.00;76.80
16517;DHT22;8371;52.272;9.746;2023-10-31T12:44:42;15.80;76.60
16517;DHT22;8371;52.272;9.746;2023-10-31T12:47:17;15.90;76.60
16517;DHT22;8371;52.272;9.746;2023-10-31T12:49:42;15.90;76.50
16517;DHT22;8371;52.272;9.746;2023-10-31T12:52:13;15.90;76.50
16517;DHT22;8371;52.272;9.746;2023-10-31T12:55:11;15.90;76.50
16517;DHT22;8371;52.272;9.746;2023-10-31T12:57:35;16.00;76.60
16517;DHT22;8371;52.272;9.746;2023-10-31T13:03:08;16.00;76.50
16517;DHT22;8371;52.272;9.746;2023-10-31T13:05:34;16.00;76.50
16517;DHT22;8371;52.272;9.746;2023-10-31T13:08:02;15.90;76.50
16517;DHT22;8371;52.272;9.746;2023-10-31T13:10:30;16.00;76.40
16517;DHT22;8371;52.272;9.746;2023-10-31T13:13:10;16.00;76.30
16517;DHT22;8371;52.272;9.746;2023-10-31T13:15:37;16.10;76.30
16517;DHT22;8371;52.272;9.746;2023-10-31T13:18:15;16.10;76.30
16517;DHT22;8371;52.272;9.746;2023-10-31T13:20:41;16.10;76.10
16517;DHT22;8371;52.272;9.746;2023-10-31T13:23:09;16.20;76.30
16517;DHT22;8371;52.272;9.746;2023-10-31T13:25:38;16.30;76.10
16517;DHT22;8371;52.272;9.746;2023-10-31T13:28:05;16.30;76.10
16517;DHT22;8371;52.272;9.746;2023-10-31T13:30:33;16.40;76.30
16517;DHT22;8371;52.272;9.746;2023-10-31T13:33:05;16.40;76.00
16517;DHT22;8371;52.272;9.746;2023-10-31T13:35:31;16.40;75.90
16517;DHT22;8371;52.272;9.746;2023-10-31T13:37:58;16.50;76.10
16517;DHT22;8371;52.272;9.746;2023-10-31T13:40:26;16.50;76.00
16517;DHT22;8371;52.272;9.746;2023-10-31T13:42:52;16.60;75.80
16517;DHT22;8371;52.272;9.746;2023-10-31T13:45:19;16.60;75.80
16517;DHT22;8371;52.272;9.746;2023-10-31T13:48:09;16.60;75.70
16517;DHT22;8371;52.272;9.746;2023-10-31T13:50:38;16.70;75.20
16517;DHT22;8371;52.272;9.746;2023-10-31T13:53:06;16.70;75.50
16517;DHT22;8371;52.272;9.746;2023-10-31T13:55:33;16.80;75.30
16517;DHT22;8371;52.272;9.746;2023-10-31T13:58:08;16.80;75.30
16517;DHT22;8371;52.272;9.746;2023-10-31T14:00:39;16.80;75.10
16517;DHT22;8371;52.272;9.746;2023-10-31T14:03:05;16.60;75.00
16517;DHT22;8371;52.272;9.746;2023-10-31T14:05:31;16.80;74.90
16517;DHT22;8371;52.272;9.746;2023-10-31T14:07:56;16.80;74.80
16517;DHT22;8371;52.272;9.746;2023-10-31T14:10:22;16.70;74.50
16517;DHT22;8371;52.272;9.746;2023-10-31T14:12:48;16.70;74.50
16517;DHT22;8371;52.272;9.746;2023-10-31T14:15:14;16.60;74.50
16517;DHT22;8371;52.272;9.746;2023-10-31T14:17:40;16.60;74.60
16517;DHT22;8371;52.272;9.746;2023-10-31T14:20:06;16.50;74.40
16517;DHT22;8371;52.272;9.746;2023-10-31T14:22:32;16.50;74.50
16517;DHT22;8371;52.272;9.746;2023-10-31T14:24:58;16.50;74.30
16517;DHT22;8371;52.272;9.746;2023-10-31T14:27:23;16.40;74.30
16517;DHT22;8371;52.272;9.746;2023-10-31T14:29:52;16.40;74.40
16517;DHT22;8371;52.272;9.746;2023-10-31T14:32:18;16.30;74.40
16517;DHT22;8371;52.272;9.746;2023-10-31T14:34:44;16.30;74.50
16517;DHT22;8371;52.272;9.746;2023-10-31T14:37:10;16.30;74.60
16517;DHT22;8371;52.272;9.746;2023-10-31T14:39:35;16.20;74.70
16517;DHT22;8371;52.272;9.746;2023-10-31T14:42:02;16.20;74.70
16517;DHT22;8371;52.272;9.746;2023-10-31T14:44:27;16.10;74.80
16517;DHT22;8371;52.272;9.746;2023-10-31T14:46:54;16.10;74.80
16517;DHT22;8371;52.272;9.746;2023-10-31T14:49:21;16.10;74.80
16517;DHT22;8371;52.272;9.746;2023-10-31T14:51:47;16.10;74.90
16517;DHT22;8371;52.272;9.746;2023-10-31T14:54:13;16.00;74.80
16517;DHT22;8371;52.272;9.746;2023-10-31T14:56:39;16.00;74.80
16517;DHT22;8371;52.272;9.746;2023-10-31T14:59:11;16.00;74.70
16517;DHT22;8371;52.272;9.746;2023-10-31T15:01:40;16.00;74.70
16517;DHT22;8371;52.272;9.746;2023-10-31T15:04:05;16.00;74.80
16517;DHT22;8371;52.272;9.746;2023-10-31T15:06:31;15.90;74.80
16517;DHT22;8371;52.272;9.746;2023-10-31T15:08:57;15.90;75.00
16517;DHT22;8371;52.272;9.746;2023-10-31T15:11:23;15.80;74.80
16517;DHT22;8371;52.272;9.746;2023-10-31T15:13:50;15.80;75.80
16517;DHT22;8371;52.272;9.746;2023-10-31T15:16:18;15.80;75.10
16517;DHT22;8371;52.272;9.746;2023-10-31T15:18:43;15.70;75.10
16517;DHT22;8371;52.272;9.746;2023-10-31T15:21:09;15.60;75.00
16517;DHT22;8371;52.272;9.746;2023-10-31T15:23:35;15.50;74.90
16517;DHT22;8371;52.272;9.746;2023-10-31T15:26:02;15.40;75.00
16517;DHT22;8371;52.272;9.746;2023-10-31T15:28:28;15.30;75.00
16517;DHT22;8371;52.272;9.746;2023-10-31T15:30:54;15.20;75.10
16517;DHT22;8371;52.272;9.746;2023-10-31T15:33:20;15.00;75.20
16517;DHT22;8371;52.272;9.746;2023-10-31T15:35:46;14.90;75.40
16517;DHT22;8371;52.272;9.746;2023-10-31T15:38:12;14.70;75.60
16517;DHT22;8371;52.272;9.746;2023-10-31T15:40:37;14.70;76.00
16517;DHT22;8371;52.272;9.746;2023-10-31T15:43:03;14.50;75.40
16517;DHT22;8371;52.272;9.746;2023-10-31T15:45:29;14.40;76.50
16517;DHT22;8371;52.272;9.746;2023-10-31T15:47:54;14.30;76.70